Time;durP1;ratioP1;P1;durP2;ratioP2;P2;SDS_P1;SDS_P2;PMS_P1;PMS_P2;Temp;Humidity;BMP_temperature;BMP_pressure;BME280_temperature;BME280_humidity;BME280_pressure;Samples;Min_cycle;Max_cycle;Signal;HPM_P1;HPM_P2
2022/07/15 00:01:11;;;;;;;3.53;1.50;;;25.80;46.20;26.50;96707.00;;;;5061228;28;20277;-88
2022/07/15 00:03:38;;;;;;;1.60;1.50;;;25.80;46.30;26.40;96716.00;;;;5055063;28;20309;-87
2022/07/15 00:06:07;;;;;;;2.03;1.53;;;25.80;46.40;26.40;96717.00;;;;5050932;28;20263;-87
2022/07/15 00:08:34;;;;;;;1.40;1.27;;;25.70;46.50;26.40;96726.00;;;;5052650;28;20223;-87
2022/07/15 00:11:02;;;;;;;1.80;1.67;;;25.70;46.50;26.40;96720.00;;;;5061768;28;20686;-88
2022/07/15 00:13:30;;;;;;;1.67;1.57;;;25.70;46.60;26.30;96721.00;;;;5042471;28;20283;-88
2022/07/15 00:15:58;;;;;;;4.47;1.80;;;25.70;46.70;26.30;96726.00;;;;5042336;28;20205;-88
2022/07/15 00:18:25;;;;;;;1.40;1.30;;;25.60;46.80;26.30;96723.00;;;;5040616;28;20293;-86
2022/07/15 00:20:52;;;;;;;1.53;1.37;;;25.60;47.00;26.30;96727.00;;;;5036789;28;20299;-88
2022/07/15 00:23:21;;;;;;;2.17;1.30;;;25.60;47.10;26.30;96732.00;;;;5065271;28;20250;-88
2022/07/15 00:25:48;;;;;;;1.40;1.30;;;25.60;47.10;26.20;96718.00;;;;5052518;28;20201;-87
2022/07/15 00:28:15;;;;;;;1.97;1.30;;;25.60;47.10;26.20;96725.00;;;;5049685;28;20258;-87
2022/07/15 00:30:43;;;;;;;4.13;2.13;;;25.50;47.60;26.20;96724.00;;;;5057188;28;20203;-87
2022/07/15 00:33:11;;;;;;;1.43;1.33;;;25.50;47.10;26.20;96733.00;;;;5056718;28;20299;-88
2022/07/15 00:35:40;;;;;;;1.67;1.57;;;25.50;47.10;26.20;96745.00;;;;5050482;28;20211;-87
2022/07/15 00:38:09;;;;;;;5.10;1.50;;;25.50;47.30;26.20;96743.00;;;;5053200;28;20224;-87
2022/07/15 00:40:43;;;;;;;3.17;1.40;;;25.40;47.30;26.10;96760.00;;;;5060081;28;20257;-88
2022/07/15 00:43:11;;;;;;;1.60;1.50;;;25.40;48.00;26.10;96746.00;;;;5067817;28;20690;-88
2022/07/15 00:45:38;;;;;;;1.63;1.53;;;25.40;47.30;26.10;96741.00;;;;5054848;28;20240;-88
2022/07/15 00:48:07;;;;;;;1.80;1.70;;;25.40;47.40;26.10;96750.00;;;;5055433;28;20228;-88
2022/07/15 00:50:34;;;;;;;1.40;1.30;;;25.40;47.50;26.00;96748.00;;;;5063370;28;20279;-88
2022/07/15 00:53:07;;;;;;;1.50;1.40;;;25.30;47.50;26.00;96751.00;;;;5054836;28;20296;-88
2022/07/15 00:55:41;;;;;;;4.07;1.80;;;25.30;47.70;25.90;96740.00;;;;5034336;28;20286;-87
2022/07/15 00:58:15;;;;;;;2.20;1.53;;;25.20;47.80;25.80;96746.00;;;;5049864;28;20255;-88
2022/07/15 01:00:44;;;;;;;1.67;1.13;;;25.20;47.80;25.80;96750.00;;;;5066441;28;20223;-88
2022/07/15 01:03:12;;;;;;;1.50;1.40;;;25.20;48.50;25.70;96756.00;;;;5058713;28;20228;-88
2022/07/15 01:05:39;;;;;;;3.80;1.57;;;25.10;47.90;25.60;96748.00;;;;5069287;22;20286;-86
2022/07/15 01:08:07;;;;;;;1.30;1.20;;;25.10;48.00;25.60;96743.00;;;;5059448;28;20196;-85
2022/07/15 01:10:36;;;;;;;2.70;1.70;;;25.00;48.10;25.50;96733.00;;;;5061614;28;20227;-85
2022/07/15 01:13:04;;;;;;;1.43;1.33;;;25.00;48.20;25.50;96742.00;;;;5063456;28;20679;-85
2022/07/15 01:15:33;;;;;;;1.73;1.63;;;24.90;48.30;25.40;96753.00;;;;5065182;28;20282;-85
2022/07/15 01:18:02;;;;;;;1.77;1.67;;;24.90;48.50;25.30;96753.00;;;;5053473;28;20246;-85
2022/07/15 01:20:33;;;;;;;1.40;1.30;;;24.80;48.30;25.30;96751.00;;;;5061767;28;20240;-85
2022/07/15 01:23:02;;;;;;;1.30;1.20;;;24.70;48.30;25.20;96755.00;;;;5052073;28;20208;-84
2022/07/15 01:25:29;;;;;;;1.93;1.30;;;24.70;48.50;25.10;96748.00;;;;5038220;28;20207;-85
2022/07/15 01:27:57;;;;;;;1.43;1.33;;;24.60;48.60;25.10;96756.00;;;;5063401;28;20287;-85
2022/07/15 01:30:24;;;;;;;1.37;1.10;;;24.60;48.60;25.00;96762.00;;;;5065827;28;20305;-85
2022/07/15 01:32:51;;;;;;;1.73;1.20;;;24.50;48.50;25.00;96760.00;;;;5066333;28;20210;-86
2022/07/15 01:35:19;;;;;;;2.20;1.30;;;24.40;48.40;24.90;96763.00;;;;5072927;28;20224;-85
2022/07/15 01:37:48;;;;;;;2.77;1.20;;;24.40;48.80;24.90;96768.00;;;;5048857;28;20273;-85
2022/07/15 01:40:17;;;;;;;1.67;1.20;;;24.30;48.70;24.80;96769.00;;;;5056954;28;20239;-85
2022/07/15 01:42:44;;;;;;;1.30;1.20;;;24.30;48.00;24.80;96771.00;;;;5053381;28;20298;-84
2022/07/15 01:45:12;;;;;;;1.37;0.90;;;24.30;47.80;24.70;96768.00;;;;5067811;28;20622;-84
2022/07/15 01:47:44;;;;;;;2.37;1.50;;;24.00;47.60;24.70;96765.00;;;;5068608;28;20237;-85
2022/07/15 01:50:11;;;;;;;1.30;1.20;;;24.20;47.50;24.60;96764.00;;;;5062558;28;20221;-85
2022/07/15 01:52:38;;;;;;;1.67;0.80;;;24.00;47.30;24.50;96762.00;;;;5059770;28;20208;-85
2022/07/15 01:55:09;;;;;;;3.13;0.83;;;24.00;47.20;24.50;96759.00;;;;5051480;28;20197;-86
2022/07/15 01:57:37;;;;;;;2.40;1.00;;;24.00;47.20;24.40;96769.00;;;;5053321;28;20224;-85
2022/07/15 02:00:07;;;;;;;2.47;0.87;;;23.90;47.20;24.40;96762.00;;;;5052667;28;20200;-85
2022/07/15 02:02:34;;;;;;;1.00;0.90;;;23.80;47.20;24.30;96758.00;;;;5060029;28;20200;-85
2022/07/15 02:05:02;;;;;;;1.43;1.00;;;23.80;47.20;24.30;96768.00;;;;5065647;28;20257;-84
2022/07/15 02:07:30;;;;;;;4.30;1.27;;;23.80;47.30;24.30;96765.00;;;;5060320;28;20212;-85
2022/07/15 02:09:57;;;;;;;1.97;0.80;;;23.70;47.30;24.30;96762.00;;;;5052332;28;20196;-85
2022/07/15 02:12:25;;;;;;;1.87;0.80;;;23.70;47.30;24.20;96758.00;;;;5056467;28;20248;-86
2022/07/15 02:14:53;;;;;;;1.93;1.10;;;23.60;47.40;24.20;96767.00;;;;5052212;28;20656;-85
2022/07/15 02:17:20;;;;;;;4.53;0.90;;;23.60;47.40;24.10;96754.00;;;;5051759;28;20224;-85
2022/07/15 02:19:48;;;;;;;2.03;1.00;;;23.60;47.50;24.10;96760.00;;;;5067286;28;21159;-85
2022/07/15 02:22:17;;;;;;;1.47;0.90;;;23.50;48.10;24.00;96762.00;;;;5049811;28;20321;-85
2022/07/15 02:24:45;;;;;;;2.00;0.90;;;23.50;47.50;24.00;96752.00;;;;5063245;28;20219;-86
2022/07/15 02:27:12;;;;;;;0.87;0.83;;;23.40;47.50;24.00;96752.00;;;;5058216;28;20197;-85
2022/07/15 02:29:40;;;;;;;0.70;0.70;;;23.40;47.60;24.00;96749.00;;;;5064782;28;20231;-85
2022/07/15 02:32:09;;;;;;;1.90;0.80;;;23.40;47.60;23.90;96757.00;;;;5052370;28;20221;-85
2022/07/15 02:34:36;;;;;;;4.30;0.90;;;23.30;47.50;23.90;96762.00;;;;5061948;28;20203;-86
2022/07/15 02:37:03;;;;;;;1.53;0.60;;;23.30;47.60;23.90;96759.00;;;;5059984;28;20229;-86
2022/07/15 02:39:30;;;;;;;2.00;0.93;;;23.30;47.60;23.90;96771.00;;;;5051892;28;20286;-85
2022/07/15 02:41:58;;;;;;;1.93;1.00;;;23.20;47.60;23.80;96767.00;;;;5045684;28;20220;-85
2022/07/15 02:44:25;;;;;;;2.70;0.80;;;23.20;47.70;23.80;96762.00;;;;5041077;28;20646;-85
2022/07/15 02:46:52;;;;;;;1.17;0.90;;;23.20;47.70;23.80;96762.00;;;;5051996;28;20207;-85
2022/07/15 02:49:20;;;;;;;2.80;1.00;;;23.20;47.80;23.80;96768.00;;;;5063940;28;20243;-86
2022/07/15 02:51:48;;;;;;;1.07;0.80;;;23.20;47.90;23.70;96787.00;;;;5065052;28;20258;-85
2022/07/15 02:54:15;;;;;;;1.00;0.80;;;23.10;47.90;23.70;96781.00;;;;5059363;28;20212;-85
2022/07/15 02:56:42;;;;;;;0.80;0.80;;;23.10;48.00;23.70;96779.00;;;;5071092;28;20657;-85
2022/07/15 02:59:10;;;;;;;1.03;0.73;;;23.00;48.10;23.70;96776.00;;;;5061125;28;20224;-85
2022/07/15 03:01:37;;;;;;;1.70;0.60;;;23.00;48.00;23.60;96778.00;;;;5052019;28;20217;-85
2022/07/15 03:04:05;;;;;;;1.07;0.73;;;23.00;48.00;23.60;96777.00;;;;5064462;28;20673;-85
2022/07/15 03:06:34;;;;;;;1.30;0.90;;;23.00;48.20;23.60;96775.00;;;;5054439;28;20211;-84
2022/07/15 03:09:01;;;;;;;1.90;0.73;;;23.00;48.30;23.60;96781.00;;;;5066151;28;20216;-85
2022/07/15 03:11:29;;;;;;;1.80;1.03;;;23.00;48.20;23.50;96779.00;;;;5046222;28;20221;-85
2022/07/15 03:13:56;;;;;;;0.83;0.70;;;22.90;48.30;23.50;96781.00;;;;5061979;28;20223;-85
2022/07/15 03:16:23;;;;;;;2.40;1.03;;;22.90;48.30;23.50;96789.00;;;;5054203;28;20417;-85
2022/07/15 03:18:50;;;;;;;2.73;0.90;;;22.80;48.30;23.40;96790.00;;;;5050280;28;20302;-86
2022/07/15 03:21:17;;;;;;;1.13;0.97;;;22.80;48.50;23.40;96798.00;;;;5065406;28;20259;-85
2022/07/15 03:23:46;;;;;;;2.30;1.00;;;22.80;48.40;23.40;96786.00;;;;5061169;28;20725;-86
2022/07/15 03:26:13;;;;;;;2.27;0.90;;;22.80;48.50;23.30;96785.00;;;;5049883;28;20624;-86
2022/07/15 03:28:40;;;;;;;2.57;1.07;;;22.70;48.50;23.30;96785.00;;;;5061397;28;20193;-85
2022/07/15 03:31:08;;;;;;;1.60;0.90;;;22.70;48.60;23.20;96788.00;;;;5064121;28;20236;-85
2022/07/15 03:33:35;;;;;;;1.77;1.00;;;22.70;48.60;23.20;96790.00;;;;5061110;28;20289;-86
2022/07/15 03:36:02;;;;;;;1.37;0.90;;;22.60;48.60;23.10;96782.00;;;;5055867;28;20228;-85
2022/07/15 03:38:29;;;;;;;0.60;0.60;;;22.60;48.60;23.10;96788.00;;;;5050413;28;20219;-86
2022/07/15 03:40:58;;;;;;;1.17;0.87;;;22.50;48.70;23.10;96794.00;;;;5051809;28;20248;-86
2022/07/15 03:43:29;;;;;;;1.00;0.90;;;22.50;48.80;23.00;96791.00;;;;5056017;28;20254;-86
2022/07/15 03:45:56;;;;;;;2.27;0.73;;;22.50;49.00;23.00;96800.00;;;;5054753;28;20204;-86
2022/07/15 03:48:24;;;;;;;1.00;0.87;;;22.40;49.00;23.00;96792.00;;;;5062392;28;20196;-85
2022/07/15 03:50:51;;;;;;;3.33;0.80;;;22.40;49.10;23.00;96794.00;;;;5067746;28;20273;-85
2022/07/15 03:53:18;;;;;;;1.07;0.60;;;22.40;49.70;22.90;96784.00;;;;5071401;22;20741;-86
2022/07/15 03:55:45;;;;;;;2.00;0.80;;;22.60;49.60;22.90;96803.00;;;;5071271;28;20232;-84
2022/07/15 03:58:14;;;;;;;1.80;0.90;;;22.30;49.80;22.90;96797.00;;;;5069878;28;20220;-86
2022/07/15 04:00:41;;;;;;;0.90;0.77;;;22.30;49.40;22.80;96805.00;;;;5073493;28;20216;-85
2022/07/15 04:03:08;;;;;;;2.47;0.90;;;22.20;49.40;22.80;96802.00;;;;5068337;28;20713;-85
2022/07/15 04:05:36;;;;;;;2.67;1.20;;;22.20;49.60;22.70;96804.00;;;;5070935;28;20223;-85
2022/07/15 04:08:03;;;;;;;0.87;0.80;;;22.20;49.70;22.70;96804.00;;;;5074919;28;20617;-85
2022/07/15 04:10:31;;;;;;;1.97;1.00;;;22.10;50.40;22.70;96808.00;;;;5072727;28;20219;-86
2022/07/15 04:12:58;;;;;;;1.50;0.80;;;22.10;50.00;22.70;96811.00;;;;5074747;28;20281;-85
2022/07/15 04:15:28;;;;;;;1.47;0.80;;;22.10;50.00;22.70;96816.00;;;;5076420;28;20640;-82
2022/07/15 04:17:58;;;;;;;1.27;0.80;;;22.10;50.10;22.70;96806.00;;;;5081891;28;20306;-82
2022/07/15 04:20:25;;;;;;;3.93;1.10;;;22.10;50.20;22.60;96819.00;;;;5084746;28;20203;-82
2022/07/15 04:22:53;;;;;;;3.73;1.17;;;22.10;50.30;22.60;96805.00;;;;5072626;28;20223;-83
2022/07/15 04:25:22;;;;;;;1.30;1.00;;;22.00;50.30;22.50;96814.00;;;;5075625;28;20318;-82
2022/07/15 04:27:50;;;;;;;2.03;1.17;;;22.00;50.30;22.50;96809.00;;;;5069269;28;20223;-82
2022/07/15 04:30:17;;;;;;;1.17;1.07;;;22.00;50.40;22.50;96801.00;;;;5083627;28;20283;-82
2022/07/15 04:32:45;;;;;;;1.30;0.70;;;22.00;50.40;22.50;96809.00;;;;5073715;28;20204;-82
2022/07/15 04:35:13;;;;;;;1.30;1.00;;;21.90;50.50;22.40;96811.00;;;;5079019;28;20791;-82
2022/07/15 04:37:40;;;;;;;2.37;1.13;;;21.90;50.60;22.40;96805.00;;;;5075795;28;20286;-82
2022/07/15 04:40:11;;;;;;;1.37;1.07;;;21.90;50.70;22.40;96802.00;;;;5076932;28;20696;-82
2022/07/15 04:42:38;;;;;;;0.97;0.87;;;21.90;50.80;22.40;96803.00;;;;5071097;28;20603;-82
2022/07/15 04:45:06;;;;;;;1.40;1.03;;;21.80;50.80;22.40;96800.00;;;;5072339;28;20261;-82
2022/07/15 04:47:33;;;;;;;1.20;0.73;;;21.80;50.90;22.40;96809.00;;;;5082526;28;20238;-82
2022/07/15 04:52:55;;;;;;;1.00;0.90;;;21.80;51.00;22.40;96813.00;;;;5038650;28;20192;-82
2022/07/15 04:55:22;;;;;;;2.23;1.00;;;21.80;51.10;22.40;96817.00;;;;5064804;28;20222;-83
2022/07/15 04:57:49;;;;;;;1.13;0.70;;;21.80;51.40;22.40;96822.00;;;;5069308;28;20192;-83
2022/07/15 05:00:17;;;;;;;1.53;0.93;;;21.80;51.50;22.50;96828.00;;;;5070895;28;20222;-82
2022/07/15 05:02:44;;;;;;;1.70;0.90;;;21.80;51.50;22.50;96829.00;;;;5068708;28;20200;-82
2022/07/15 05:05:12;;;;;;;1.27;0.83;;;21.80;51.40;22.50;96828.00;;;;5069726;28;20273;-82
2022/07/15 05:07:39;;;;;;;1.10;0.87;;;21.80;51.50;22.50;96823.00;;;;5072240;28;20269;-82
2022/07/15 05:10:09;;;;;;;4.27;1.23;;;21.80;51.60;22.50;96828.00;;;;5069992;28;20670;-82
2022/07/15 05:12:37;;;;;;;1.60;0.80;;;21.80;51.60;22.50;96832.00;;;;5072302;28;20627;-82
2022/07/15 05:15:05;;;;;;;3.93;1.40;;;21.80;51.60;22.50;96819.00;;;;5080351;28;20238;-82
2022/07/15 05:17:34;;;;;;;1.60;1.20;;;21.80;51.50;22.50;96822.00;;;;5081273;28;20228;-81
2022/07/15 05:20:01;;;;;;;1.73;0.90;;;21.80;51.50;22.50;96825.00;;;;5082030;28;20216;-82
2022/07/15 05:22:30;;;;;;;3.03;1.23;;;21.80;51.60;22.40;96829.00;;;;5074716;28;20716;-82
2022/07/15 05:24:57;;;;;;;1.17;0.90;;;21.80;51.60;22.40;96829.00;;;;5081252;28;20219;-82
2022/07/15 05:27:24;;;;;;;1.63;0.90;;;21.80;51.70;22.40;96831.00;;;;5089965;28;20291;-83
2022/07/15 05:29:51;;;;;;;1.97;1.10;;;21.80;51.60;22.40;96835.00;;;;5076777;28;20603;-83
2022/07/15 05:32:18;;;;;;;2.43;1.00;;;21.80;51.40;22.40;96837.00;;;;5076301;28;20636;-82
2022/07/15 05:34:46;;;;;;;0.80;0.80;;;21.80;51.40;22.40;96837.00;;;;5074559;28;20253;-82
2022/07/15 05:37:13;;;;;;;1.43;1.00;;;21.80;51.40;22.40;96833.00;;;;5081983;28;20376;-82
2022/07/15 05:39:53;;;;;;;1.90;0.80;;;21.80;51.40;22.40;96837.00;;;;5077511;28;20266;-82
2022/07/15 05:42:20;;;;;;;3.17;0.83;;;21.80;51.90;22.40;96836.00;;;;5067274;28;20196;-83
2022/07/15 05:44:47;;;;;;;1.47;0.93;;;21.70;51.40;22.40;96833.00;;;;5069242;28;20288;-82
2022/07/15 05:47:15;;;;;;;1.50;0.90;;;21.70;51.50;22.40;96845.00;;;;5080567;28;20196;-82
2022/07/15 05:49:42;;;;;;;3.77;0.87;;;21.80;52.10;22.40;96852.00;;;;5071653;28;20287;-82
2022/07/15 05:52:09;;;;;;;1.57;0.83;;;21.80;51.30;22.40;96849.00;;;;5075761;28;20227;-82
2022/07/15 05:54:37;;;;;;;1.63;1.03;;;21.80;51.10;22.40;96851.00;;;;5080307;28;20232;-82
2022/07/15 05:57:06;;;;;;;2.97;0.97;;;21.80;51.10;22.40;96843.00;;;;5079885;28;20567;-82
2022/07/15 05:59:33;;;;;;;1.17;0.80;;;21.80;51.10;22.40;96857.00;;;;5079327;28;20272;-82
2022/07/15 06:02:00;;;;;;;2.47;0.70;;;21.80;51.10;22.50;96859.00;;;;5072498;28;20282;-82
2022/07/15 06:04:28;;;;;;;0.97;0.87;;;21.80;50.90;22.50;96859.00;;;;5073500;28;20821;-82
2022/07/15 06:06:57;;;;;;;1.00;0.80;;;21.80;51.00;22.50;96859.00;;;;5083450;28;20227;-81
2022/07/15 06:09:24;;;;;;;2.10;0.70;;;21.80;51.10;22.50;96857.00;;;;5071746;28;20249;-81
2022/07/15 06:11:51;;;;;;;0.70;0.60;;;21.80;50.90;22.50;96860.00;;;;5051898;28;20427;-82
2022/07/15 06:14:21;;;;;;;2.57;0.90;;;21.80;50.70;22.60;96862.00;;;;5072095;28;20242;-82
2022/07/15 06:16:48;;;;;;;2.50;1.00;;;21.90;50.70;22.60;96860.00;;;;5073967;28;20191;-82
2022/07/15 06:19:15;;;;;;;0.80;0.60;;;21.90;50.60;22.70;96855.00;;;;5075271;28;20315;-81
2022/07/15 06:21:43;;;;;;;4.13;1.00;;;21.90;50.70;22.70;96860.00;;;;5079451;28;20720;-82
2022/07/15 06:24:10;;;;;;;1.67;0.87;;;22.00;50.80;22.70;96862.00;;;;5076754;28;20236;-81
2022/07/15 06:26:37;;;;;;;1.10;0.70;;;22.00;50.70;22.80;96857.00;;;;5062045;28;20244;-82
2022/07/15 06:29:05;;;;;;;1.53;0.67;;;22.00;50.70;22.80;96857.00;;;;5080364;28;20188;-82
2022/07/15 06:31:33;;;;;;;1.67;0.60;;;22.10;50.60;22.80;96860.00;;;;5072180;28;20204;-82
2022/07/15 06:34:01;;;;;;;0.83;0.70;;;22.10;50.40;22.90;96857.00;;;;5069268;28;20235;-82
2022/07/15 06:36:28;;;;;;;0.80;0.60;;;22.20;50.30;22.90;96859.00;;;;5079413;28;20287;-82
2022/07/15 06:38:55;;;;;;;1.57;0.60;;;22.20;50.20;23.00;96867.00;;;;5079979;28;20223;-82
2022/07/15 06:41:22;;;;;;;0.93;0.70;;;22.20;50.00;23.00;96862.00;;;;5082526;28;20219;-82
2022/07/15 06:43:49;;;;;;;2.77;0.77;;;22.30;49.90;23.00;96873.00;;;;5072004;28;20314;-82
2022/07/15 06:46:16;;;;;;;1.13;0.60;;;22.30;50.00;23.10;96870.00;;;;5079245;28;20313;-82
2022/07/15 06:48:45;;;;;;;1.17;0.57;;;22.40;50.20;23.10;96872.00;;;;5071094;28;20200;-82
2022/07/15 06:51:12;;;;;;;1.23;0.80;;;22.40;50.10;23.20;96871.00;;;;5069899;28;20275;-82
2022/07/15 06:53:40;;;;;;;2.90;0.90;;;22.40;50.10;23.30;96882.00;;;;5071593;28;20319;-82
2022/07/15 06:56:08;;;;;;;2.37;0.80;;;22.50;49.60;23.30;96877.00;;;;5082846;28;20204;-82
2022/07/15 06:58:38;;;;;;;1.13;0.80;;;22.50;49.00;23.30;96872.00;;;;5073098;28;20854;-82
2022/07/15 07:01:06;;;;;;;1.80;0.73;;;22.60;49.10;23.30;96873.00;;;;5086143;28;20196;-82
2022/07/15 07:03:33;;;;;;;2.30;0.70;;;22.60;49.20;23.40;96875.00;;;;5079620;28;20197;-83
2022/07/15 07:06:02;;;;;;;1.27;0.80;;;22.70;49.30;23.50;96886.00;;;;5104986;22;20280;-85
2022/07/15 07:08:29;;;;;;;0.63;0.60;;;22.70;49.20;23.50;96874.00;;;;5073548;28;20225;-85
2022/07/15 07:10:57;;;;;;;1.13;0.70;;;22.80;48.80;23.60;96881.00;;;;5084219;28;20613;-85
2022/07/15 07:13:24;;;;;;;0.70;0.60;;;22.80;48.90;23.80;96878.00;;;;5091765;28;20282;-85
2022/07/15 07:15:51;;;;;;;0.50;0.47;;;22.90;48.60;23.90;96884.00;;;;5091899;28;21049;-84
2022/07/15 07:18:19;;;;;;;0.50;0.40;;;23.00;48.50;24.10;96881.00;;;;5088820;28;20237;-84
2022/07/15 07:20:46;;;;;;;1.43;0.40;;;23.20;48.60;24.30;96881.00;;;;5089266;28;20224;-84
2022/07/15 07:23:15;;;;;;;1.70;0.47;;;23.30;48.60;24.50;96884.00;;;;5092684;28;20189;-84
2022/07/15 07:25:42;;;;;;;0.90;0.50;;;23.50;48.70;24.70;96889.00;;;;5093064;28;20670;-84
2022/07/15 07:28:09;;;;;;;0.70;0.50;;;23.60;48.70;24.90;96885.00;;;;5083141;28;20215;-85
2022/07/15 07:30:36;;;;;;;0.73;0.40;;;23.80;48.20;25.10;96886.00;;;;5082403;28;20206;-84
2022/07/15 07:33:04;;;;;;;1.30;0.70;;;23.90;48.00;25.20;96884.00;;;;5085749;28;20260;-85
2022/07/15 07:35:32;;;;;;;1.50;0.40;;;24.10;47.60;25.40;96879.00;;;;5092689;28;20200;-84
2022/07/15 07:38:01;;;;;;;1.57;0.73;;;24.20;46.90;25.60;96884.00;;;;5092479;28;20203;-84
2022/07/15 07:40:30;;;;;;;1.17;0.70;;;24.40;47.00;25.80;96894.00;;;;5084147;28;20638;-85
2022/07/15 07:42:58;;;;;;;1.67;0.47;;;24.60;47.00;25.90;96894.00;;;;5093123;28;20682;-84
2022/07/15 07:45:28;;;;;;;1.43;0.53;;;24.70;46.70;26.10;96891.00;;;;5092316;28;20195;-85
2022/07/15 07:47:56;;;;;;;0.73;0.70;;;24.90;46.30;26.30;96895.00;;;;5088280;28;20211;-84
2022/07/15 07:50:24;;;;;;;1.27;0.50;;;25.10;46.00;26.40;96889.00;;;;5091986;28;20252;-85
2022/07/15 07:52:51;;;;;;;0.70;0.70;;;25.20;45.90;26.60;96891.00;;;;5084315;28;20209;-85
2022/07/15 07:55:19;;;;;;;1.13;0.50;;;25.40;45.70;26.70;96892.00;;;;5091158;28;20195;-84
2022/07/15 07:57:52;;;;;;;1.03;0.80;;;25.50;45.20;26.90;96883.00;;;;5086316;28;20211;-84
2022/07/15 08:00:22;;;;;;;0.97;0.50;;;25.70;44.70;27.10;96884.00;;;;5087538;28;20671;-84
2022/07/15 08:02:54;;;;;;;0.53;0.30;;;25.80;44.80;27.20;96884.00;;;;5081586;28;20191;-84
2022/07/15 08:05:23;;;;;;;0.53;0.50;;;25.90;44.10;27.30;96877.00;;;;5081132;28;20208;-84
2022/07/15 08:07:51;;;;;;;1.53;0.53;;;26.00;43.90;27.40;96886.00;;;;5085950;28;20233;-84
2022/07/15 08:10:19;;;;;;;1.00;0.80;;;26.10;43.70;27.50;96881.00;;;;5092223;28;20285;-84
2022/07/15 08:12:47;;;;;;;0.97;0.67;;;26.20;43.20;27.60;96880.00;;;;5090670;28;20622;-84
2022/07/15 08:15:16;;;;;;;2.10;0.80;;;26.40;43.10;27.70;96880.00;;;;5091971;28;20203;-84
2022/07/15 08:17:46;;;;;;;1.23;0.70;;;26.40;43.10;27.80;96883.00;;;;5092207;28;20214;-84
2022/07/15 08:20:16;;;;;;;1.50;0.40;;;26.60;43.00;27.90;96889.00;;;;5091743;28;20230;-84
2022/07/15 08:22:43;;;;;;;1.63;0.60;;;26.70;42.80;28.00;96882.00;;;;5091842;28;20648;-84
2022/07/15 08:25:18;;;;;;;4.63;0.80;;;26.80;42.50;28.20;96878.00;;;;5091111;28;20260;-85
2022/07/15 08:27:47;;;;;;;1.70;0.70;;;26.90;42.40;28.30;96877.00;;;;5091779;28;20222;-85
2022/07/15 08:30:16;;;;;;;0.97;0.50;;;27.00;42.30;28.40;96871.00;;;;5085562;28;20249;-85
2022/07/15 08:32:43;;;;;;;1.53;0.60;;;27.10;42.10;28.60;96881.00;;;;5090539;28;20202;-85
2022/07/15 08:35:16;;;;;;;0.75;0.40;;;27.20;41.90;28.70;96873.00;;;;5092068;28;20203;-85
2022/07/15 08:37:43;;;;;;;1.65;0.60;;;27.30;41.70;28.80;96881.00;;;;5088665;28;20227;-85
2022/07/15 08:40:12;;;;;;;1.90;0.38;;;27.50;41.30;29.00;96878.00;;;;5071406;28;20269;-85
2022/07/15 08:42:42;;;;;;;1.23;0.52;;;27.60;41.20;29.10;96871.00;;;;5086283;28;20687;-84
2022/07/15 08:45:11;;;;;;;1.30;0.63;;;27.70;41.30;29.30;96864.00;;;;5093297;28;20195;-85
2022/07/15 08:47:43;;;;;;;1.35;0.70;;;27.80;41.30;29.50;96870.00;;;;5091454;28;20713;-85
2022/07/15 08:50:12;;;;;;;1.90;0.60;;;28.00;41.30;29.60;96877.00;;;;5091706;28;20632;-83
2022/07/15 08:52:40;;;;;;;0.68;0.47;;;28.10;40.50;29.80;96875.00;;;;5091745;28;20286;-84
2022/07/15 08:55:09;;;;;;;2.35;0.55;;;28.20;40.00;29.80;96873.00;;;;5090983;28;20192;-84
2022/07/15 08:57:37;;;;;;;0.73;0.43;;;28.30;39.90;30.00;96871.00;;;;5080077;28;20594;-84
2022/07/15 09:00:10;;;;;;;7.38;0.50;;;28.40;39.50;30.10;96875.00;;;;5091771;28;20223;-85
2022/07/15 09:02:39;;;;;;;1.23;0.43;;;28.50;39.30;30.10;96876.00;;;;5094170;28;20640;-85
2022/07/15 09:05:22;;;;;;;0.55;0.40;;;28.70;39.10;30.30;96873.00;;;;5096025;28;20249;-85
2022/07/15 09:08:00;;;;;;;1.88;0.60;;;28.80;38.40;30.40;96868.00;;;;5096420;28;20211;-84
2022/07/15 09:10:47;;;;;;;2.47;0.50;;;28.90;38.50;30.50;96874.00;;;;5088554;28;20215;-85
2022/07/15 09:13:35;;;;;;;1.27;0.50;;;29.00;37.80;30.70;96879.00;;;;5095360;28;20203;-85
2022/07/15 09:16:05;;;;;;;1.23;0.73;;;29.10;37.90;30.80;96871.00;;;;5086981;28;20191;-85
2022/07/15 09:18:36;;;;;;;1.02;0.70;;;29.20;38.10;30.80;96883.00;;;;5089987;28;20723;-85
2022/07/15 09:21:15;;;;;;;0.60;0.60;;;29.30;37.80;30.90;96883.00;;;;5095235;28;20220;-84
2022/07/15 09:23:42;;;;;;;1.05;0.55;;;29.40;37.60;31.00;96880.00;;;;5094646;28;20256;-85
2022/07/15 09:26:25;;;;;;;0.60;0.50;;;29.50;37.90;31.20;96882.00;;;;5094927;28;20555;-84
2022/07/15 09:28:53;;;;;;;0.85;0.70;;;29.60;37.30;31.30;96879.00;;;;5094906;28;20670;-85
2022/07/15 09:34:19;;;;;;;2.42;0.90;;;29.80;37.10;31.70;96883.00;;;;5094731;28;20198;-85
2022/07/15 09:36:52;;;;;;;1.73;0.52;;;29.90;37.30;31.80;96878.00;;;;5090141;28;20244;-85
2022/07/15 09:39:21;;;;;;;0.52;0.30;;;30.10;37.10;32.00;96884.00;;;;5072356;28;20411;-85
2022/07/15 09:41:50;;;;;;;0.50;0.50;;;30.20;37.10;32.30;96878.00;;;;5078280;28;20204;-83
2022/07/15 09:44:19;;;;;;;1.25;0.60;;;30.30;36.90;32.50;96876.00;;;;5087231;28;20535;-84
2022/07/15 09:46:54;;;;;;;1.15;0.68;;;30.40;36.50;32.70;96876.00;;;;5074081;28;20563;-84
2022/07/15 09:49:38;;;;;;;1.40;0.77;;;30.60;37.20;32.90;96874.00;;;;5074398;28;20219;-86
2022/07/15 09:52:09;;;;;;;1.60;0.60;;;30.70;35.80;33.10;96877.00;;;;5082363;28;20199;-84
2022/07/15 09:54:40;;;;;;;2.90;0.70;;;30.80;36.00;33.20;96873.00;;;;5094694;28;20667;-85
2022/07/15 09:57:14;;;;;;;1.75;0.70;;;31.00;35.80;33.30;96871.00;;;;5094099;28;20211;-85
2022/07/15 09:59:42;;;;;;;0.88;0.55;;;31.20;35.80;33.40;96867.00;;;;5094194;28;20226;-85
2022/07/15 10:02:10;;;;;;;2.35;0.80;;;31.40;35.80;33.50;96870.00;;;;5094726;28;20191;-84
2022/07/15 10:04:39;;;;;;;2.45;0.80;;;31.60;36.00;33.70;96871.00;;;;5094557;28;20199;-85
2022/07/15 10:07:07;;;;;;;0.75;0.47;;;31.80;35.50;33.90;96862.00;;;;5094080;28;20249;-84
2022/07/15 10:09:37;;;;;;;0.70;0.50;;;32.00;35.70;34.10;96864.00;;;;5094529;28;20203;-85
2022/07/15 10:12:13;;;;;;;1.30;0.80;;;32.20;35.30;34.20;96869.00;;;;5094686;28;20351;-87
2022/07/15 10:15:03;;;;;;;0.77;0.65;;;32.40;35.00;34.40;96872.00;;;;5093022;28;20175;-85
2022/07/15 10:18:09;;;;;;;2.47;0.60;;;32.60;34.70;34.50;96867.00;;;;5093607;28;20218;-85
2022/07/15 10:21:01;;;;;;;1.63;0.50;;;32.80;34.00;34.60;96874.00;;;;5093258;28;20273;-86
2022/07/15 10:24:04;;;;;;;1.40;0.50;;;33.00;33.90;34.70;96878.00;;;;5089014;28;20203;-86
2022/07/15 10:26:57;;;;;;;1.48;0.40;;;33.10;33.80;34.60;96866.00;;;;5085836;28;20285;-86
2022/07/15 10:29:33;;;;;;;1.90;0.60;;;33.30;33.50;34.50;96872.00;;;;5091751;28;20203;-86
2022/07/15 10:32:02;;;;;;;2.50;0.75;;;33.40;32.90;34.50;96862.00;;;;5084826;28;20497;-85
2022/07/15 10:34:33;;;;;;;0.77;0.50;;;33.40;33.90;34.40;96861.00;;;;5093804;28;20214;-86
2022/07/15 10:37:10;;;;;;;0.70;0.70;;;33.50;33.40;34.40;96865.00;;;;5088689;28;20194;-85
2022/07/15 10:40:04;;;;;;;1.13;0.70;;;33.50;33.10;34.30;96865.00;;;;5091551;28;20226;-85
2022/07/15 10:43:01;;;;;;;1.10;0.63;;;33.50;32.40;34.30;96863.00;;;;5094467;28;20572;-85
2022/07/15 10:45:29;;;;;;;0.70;0.52;;;33.50;32.50;34.30;96863.00;;;;5068635;28;20207;-85
2022/07/15 10:48:32;;;;;;;0.50;0.50;;;33.50;32.90;34.40;96864.00;;;;5074402;28;20684;-86
2022/07/15 10:50:59;;;;;;;2.10;0.75;;;33.60;32.70;34.50;96852.00;;;;5093211;28;20202;-86
2022/07/15 10:53:29;;;;;;;1.95;0.70;;;33.70;33.60;34.50;96849.00;;;;5092627;28;20196;-86
2022/07/15 10:55:56;;;;;;;0.85;0.55;;;33.80;33.30;34.60;96858.00;;;;5092823;28;20187;-85
2022/07/15 10:58:24;;;;;;;1.27;0.60;;;34.00;32.70;34.60;96858.00;;;;5093510;28;20230;-86
2022/07/15 11:00:52;;;;;;;2.03;0.85;;;34.00;32.60;34.60;96857.00;;;;5078194;28;20216;-86
2022/07/15 11:03:29;;;;;;;1.95;0.57;;;34.00;32.60;34.40;96861.00;;;;5094599;28;20203;-87
2022/07/15 11:06:06;;;;;;;0.60;0.60;;;33.90;32.00;34.20;96851.00;;;;5086876;28;20203;-86
2022/07/15 11:08:57;;;;;;;1.55;0.70;;;33.80;31.90;34.00;96844.00;;;;5093564;28;20463;-87
2022/07/15 11:11:51;;;;;;;1.58;0.70;;;33.60;31.90;33.70;96837.00;;;;5091152;28;20249;-87